createdAt,value
2022-08-20T00:02:13.973Z,1.60
2022-08-20T00:04:43.971Z,1.70
2022-08-20T00:07:12.446Z,1.53
2022-08-20T00:09:41.543Z,1.40
2022-08-20T00:12:10.488Z,2.07
2022-08-20T00:14:38.661Z,1.67
2022-08-20T00:17:07.316Z,1.67
2022-08-20T00:19:35.684Z,1.47
2022-08-20T00:22:05.082Z,1.97
2022-08-20T00:24:33.121Z,1.40
2022-08-20T00:27:01.287Z,1.27
2022-08-20T00:29:29.568Z,1.20
2022-08-20T00:31:57.569Z,1.50
2022-08-20T00:34:25.786Z,1.40
2022-08-20T00:36:53.894Z,1.20
2022-08-20T00:39:23.237Z,1.43
2022-08-20T00:41:51.987Z,1.37
2022-08-20T00:44:22.849Z,1.23
2022-08-20T00:46:52.068Z,1.50
2022-08-20T00:49:24.734Z,1.13
2022-08-20T00:51:57.528Z,1.87
2022-08-20T00:54:30.095Z,1.00
2022-08-20T00:57:01.471Z,1.20
2022-08-20T00:59:31.915Z,1.40
2022-08-20T01:02:02.580Z,1.20
2022-08-20T01:04:35.382Z,1.20
2022-08-20T01:07:05.233Z,1.30
2022-08-20T01:09:57.794Z,1.30
2022-08-20T01:12:25.152Z,1.57
2022-08-20T01:14:54.134Z,1.40
2022-08-20T01:17:25.703Z,1.30
2022-08-20T01:20:00.450Z,1.23
2022-08-20T01:22:53.251Z,1.40
2022-08-20T01:25:34.373Z,1.23
2022-08-20T01:28:04.756Z,1.27
2022-08-20T01:30:34.463Z,1.53
2022-08-20T01:33:02.909Z,1.37
2022-08-20T01:35:31.145Z,1.50
2022-08-20T01:37:59.200Z,1.33
2022-08-20T01:40:56.136Z,1.27
2022-08-20T01:43:25.794Z,1.50
2022-08-20T01:45:54.418Z,1.33
2022-08-20T01:48:23.542Z,1.10
2022-08-20T01:50:59.476Z,1.10
2022-08-20T01:53:33.500Z,1.13
2022-08-20T01:56:02.831Z,1.13
2022-08-20T01:58:34.448Z,1.47
2022-08-20T02:01:02.444Z,1.20
2022-08-20T02:03:36.263Z,1.47
2022-08-20T02:06:06.956Z,1.23
2022-08-20T02:08:34.959Z,1.00
2022-08-20T02:11:03.009Z,1.30
2022-08-20T02:13:32.825Z,1.00
2022-08-20T02:16:00.852Z,1.77
2022-08-20T02:18:28.922Z,1.00
2022-08-20T02:20:56.903Z,1.20
2022-08-20T02:23:24.935Z,1.40
2022-08-20T02:25:52.936Z,1.57
2022-08-20T02:28:21.662Z,1.50
2022-08-20T02:30:55.283Z,1.23
2022-08-20T02:33:24.700Z,1.30
2022-08-20T02:35:56.920Z,1.27
2022-08-20T02:38:26.101Z,1.17
2022-08-20T02:40:54.094Z,1.70
2022-08-20T02:43:22.099Z,1.30
2022-08-20T02:45:51.531Z,1.27
2022-08-20T02:48:23.063Z,1.50
2022-08-20T02:50:53.908Z,1.57
2022-08-20T02:53:22.540Z,1.40
2022-08-20T02:55:50.781Z,1.63
2022-08-20T02:58:19.935Z,1.40
2022-08-20T03:00:49.168Z,1.53
2022-08-20T03:03:22.391Z,1.70
2022-08-20T03:05:53.292Z,1.40
2022-08-20T03:08:22.726Z,1.90
2022-08-20T03:10:52.899Z,1.57
2022-08-20T03:13:22.195Z,1.40
2022-08-20T03:15:56.497Z,1.33
2022-08-20T03:18:31.275Z,1.80
2022-08-20T03:20:59.306Z,1.60
2022-08-20T03:23:27.600Z,1.67
2022-08-20T03:25:55.685Z,1.97
2022-08-20T03:28:23.938Z,2.00
2022-08-20T03:30:53.205Z,1.70
2022-08-20T03:33:21.728Z,1.53
2022-08-20T03:35:51.452Z,2.00
2022-08-20T03:38:32.918Z,1.77
2022-08-20T03:41:02.925Z,1.97
2022-08-20T03:43:31.433Z,1.80
2022-08-20T03:45:59.690Z,2.10
2022-08-20T03:48:27.831Z,1.70
2022-08-20T03:50:58.523Z,1.87
2022-08-20T03:53:26.669Z,2.13
2022-08-20T03:55:59.254Z,2.10
2022-08-20T03:58:35.543Z,2.00
2022-08-20T04:01:05.903Z,1.90
2022-08-20T04:03:34.297Z,2.20
2022-08-20T04:06:04.166Z,2.37
2022-08-20T04:08:32.266Z,2.27
2022-08-20T04:11:01.165Z,2.60
2022-08-20T04:13:30.548Z,2.60
2022-08-20T04:15:58.919Z,2.17
2022-08-20T04:18:27.525Z,2.80
2022-08-20T04:20:55.766Z,2.67
2022-08-20T04:23:25.144Z,2.73
2022-08-20T04:25:56.540Z,2.60
2022-08-20T04:28:27.293Z,2.90
2022-08-20T04:30:56.172Z,2.70
2022-08-20T04:33:34.088Z,2.60
2022-08-20T04:36:06.079Z,3.20
2022-08-20T04:38:50.683Z,2.77
2022-08-20T04:41:23.680Z,3.57
2022-08-20T04:43:54.039Z,2.83
2022-08-20T04:46:25.837Z,3.20
2022-08-20T04:48:54.174Z,2.90
2022-08-20T04:51:24.272Z,2.90
2022-08-20T04:53:56.292Z,3.50
2022-08-20T04:56:27.820Z,3.00
2022-08-20T04:58:58.094Z,4.10
2022-08-20T05:01:27.446Z,3.40
2022-08-20T05:03:58.753Z,3.50
2022-08-20T05:06:29.546Z,3.73
2022-08-20T05:09:00.883Z,3.87
2022-08-20T05:11:35.553Z,4.40
2022-08-20T05:14:08.158Z,4.10
2022-08-20T05:16:40.520Z,3.37
2022-08-20T05:19:10.219Z,3.87
2022-08-20T05:21:38.484Z,3.80
2022-08-20T05:24:08.407Z,3.50
2022-08-20T05:26:36.851Z,3.93
2022-08-20T05:29:06.701Z,3.43
2022-08-20T05:31:35.405Z,3.17
2022-08-20T05:34:04.319Z,3.30
2022-08-20T05:36:32.312Z,4.00
2022-08-20T05:39:00.318Z,3.70
2022-08-20T05:41:30.487Z,3.50
2022-08-20T05:44:01.687Z,3.43
2022-08-20T05:46:31.153Z,3.50
2022-08-20T05:49:00.157Z,3.60
2022-08-20T05:51:29.054Z,3.27
2022-08-20T05:53:59.312Z,3.20
2022-08-20T05:56:31.114Z,2.93
2022-08-20T05:59:01.701Z,3.30
2022-08-20T06:01:29.832Z,3.03
2022-08-20T06:04:15.434Z,3.50
2022-08-20T06:06:46.122Z,3.10
2022-08-20T06:09:15.762Z,3.00
2022-08-20T06:11:45.153Z,3.77
2022-08-20T06:14:13.233Z,3.10
2022-08-20T06:16:42.838Z,3.30
2022-08-20T06:19:26.315Z,3.20
2022-08-20T06:21:54.689Z,3.30
2022-08-20T06:24:22.878Z,3.70
2022-08-20T06:26:57.559Z,2.57
2022-08-20T06:29:26.274Z,3.10
2022-08-20T06:31:54.298Z,3.70
2022-08-20T06:34:22.382Z,3.23
2022-08-20T06:36:50.370Z,2.90
2022-08-20T06:39:18.442Z,3.37
2022-08-20T06:41:46.491Z,3.53
2022-08-20T06:44:16.348Z,3.43
2022-08-20T06:46:45.163Z,3.20
2022-08-20T06:49:13.814Z,3.33
2022-08-20T06:51:41.835Z,3.37
2022-08-20T06:54:09.815Z,3.43
2022-08-20T06:56:37.785Z,3.40
2022-08-20T06:59:05.736Z,3.50
2022-08-20T07:01:35.748Z,3.23
2022-08-20T07:04:05.585Z,3.20
2022-08-20T07:06:33.560Z,3.10
2022-08-20T07:09:01.703Z,3.10
2022-08-20T07:11:29.800Z,3.40
2022-08-20T07:13:59.323Z,3.17
2022-08-20T07:16:27.498Z,3.40
2022-08-20T07:18:58.271Z,2.80
2022-08-20T07:21:26.650Z,3.23
2022-08-20T07:23:54.661Z,3.67
2022-08-20T07:26:22.789Z,3.13
2022-08-20T07:28:50.890Z,2.90
2022-08-20T07:31:36.294Z,2.93
2022-08-20T07:34:05.978Z,3.27
2022-08-20T07:36:34.881Z,3.50
2022-08-20T07:39:06.031Z,2.83
2022-08-20T07:41:34.808Z,3.03
2022-08-20T07:44:03.496Z,3.10
2022-08-20T07:46:32.301Z,2.87
2022-08-20T07:49:00.558Z,3.13
2022-08-20T07:51:29.944Z,2.57
2022-08-20T07:54:00.107Z,2.77
2022-08-20T07:56:28.362Z,3.00
2022-08-20T07:58:59.252Z,2.80
2022-08-20T08:01:30.573Z,2.53
2022-08-20T08:03:59.091Z,3.00
2022-08-20T08:06:31.306Z,3.10
2022-08-20T08:09:04.867Z,3.10
2022-08-20T08:11:35.816Z,2.80
2022-08-20T08:14:05.323Z,2.57
2022-08-20T08:16:35.151Z,2.80
2022-08-20T08:19:07.145Z,2.43
2022-08-20T08:21:36.541Z,2.50
2022-08-20T08:24:05.210Z,3.10
2022-08-20T08:26:33.221Z,2.70
2022-08-20T08:29:01.192Z,2.87
2022-08-20T08:31:29.325Z,2.80
2022-08-20T08:33:57.363Z,3.10
2022-08-20T08:36:26.805Z,2.80
2022-08-20T08:38:56.603Z,2.73
2022-08-20T08:41:31.283Z,2.90
2022-08-20T08:44:06.029Z,3.20
2022-08-20T08:46:40.279Z,3.30
2022-08-20T08:49:11.078Z,2.70
2022-08-20T08:51:43.124Z,2.90
2022-08-20T08:54:17.006Z,2.43
2022-08-20T08:56:50.023Z,3.03
2022-08-20T08:59:19.624Z,3.20
2022-08-20T09:01:54.413Z,3.30
2022-08-20T09:04:25.643Z,2.80
2022-08-20T09:06:54.453Z,3.20
2022-08-20T09:09:28.015Z,2.97
2022-08-20T09:11:58.963Z,3.20
2022-08-20T09:14:27.064Z,3.20
2022-08-20T09:16:55.264Z,3.10
2022-08-20T09:19:23.324Z,3.10
2022-08-20T09:21:51.499Z,2.93
2022-08-20T09:24:20.019Z,2.70
2022-08-20T09:26:49.358Z,2.70
2022-08-20T09:29:17.589Z,2.70
2022-08-20T09:31:46.424Z,2.33
2022-08-20T09:34:14.911Z,2.57
2022-08-20T09:36:42.927Z,2.13
2022-08-20T09:39:12.468Z,2.03
2022-08-20T09:41:41.351Z,2.00
2022-08-20T09:44:10.651Z,1.90
2022-08-20T09:46:38.619Z,1.83
2022-08-20T09:49:06.601Z,1.40
2022-08-20T09:51:38.367Z,1.80
2022-08-20T09:54:06.841Z,1.63
2022-08-20T09:56:35.687Z,1.60
2022-08-20T09:59:03.767Z,1.40
2022-08-20T10:01:34.233Z,1.60
2022-08-20T10:04:02.234Z,1.57
2022-08-20T10:06:32.531Z,1.27
2022-08-20T10:09:04.666Z,0.97
2022-08-20T10:11:32.911Z,1.00
2022-08-20T10:14:00.921Z,1.20
2022-08-20T10:16:29.077Z,1.40
2022-08-20T10:18:58.692Z,1.40
2022-08-20T10:21:26.648Z,1.37
2022-08-20T10:23:54.670Z,2.10
2022-08-20T10:26:22.640Z,1.60
2022-08-20T10:28:53.360Z,1.50
2022-08-20T10:31:21.475Z,0.90
2022-08-20T10:33:49.553Z,0.93
2022-08-20T10:36:19.619Z,1.00
2022-08-20T10:38:48.994Z,1.17
2022-08-20T10:41:17.064Z,0.87
2022-08-20T10:43:45.062Z,0.90
2022-08-20T10:46:13.183Z,0.80
2022-08-20T10:48:41.367Z,0.90
2022-08-20T10:51:09.485Z,0.90
2022-08-20T10:53:39.005Z,0.90
2022-08-20T10:56:07.495Z,1.30
2022-08-20T10:58:39.490Z,0.90
2022-08-20T11:01:08.154Z,1.30
2022-08-20T11:03:36.764Z,0.97
2022-08-20T11:06:05.170Z,1.00
2022-08-20T11:08:36.142Z,0.83
2022-08-20T11:11:06.646Z,0.87
2022-08-20T11:13:35.355Z,0.80
2022-08-20T11:16:04.554Z,0.50
2022-08-20T11:18:33.106Z,0.70
2022-08-20T11:21:01.499Z,0.73
2022-08-20T11:23:30.511Z,0.60
2022-08-20T11:25:58.892Z,0.70
2022-08-20T11:28:32.231Z,0.80
2022-08-20T11:31:01.689Z,0.80
2022-08-20T11:33:32.171Z,0.60
2022-08-20T11:36:00.158Z,0.60
2022-08-20T11:38:28.126Z,0.70
2022-08-20T11:40:56.140Z,0.80
2022-08-20T11:43:24.150Z,0.70
2022-08-20T11:45:56.566Z,0.70
2022-08-20T11:48:24.734Z,0.67
2022-08-20T11:50:53.124Z,0.57
2022-08-20T11:53:21.528Z,0.80
2022-08-20T11:55:50.688Z,0.93
2022-08-20T11:58:19.077Z,0.63
2022-08-20T12:00:47.179Z,0.70
2022-08-20T12:03:16.892Z,0.60
2022-08-20T12:05:47.160Z,0.80
2022-08-20T12:08:26.834Z,0.63
2022-08-20T12:10:57.457Z,1.07
2022-08-20T12:13:30.850Z,0.77
2022-08-20T12:16:13.792Z,0.60
2022-08-20T12:18:43.122Z,0.80
2022-08-20T12:21:11.123Z,0.73
2022-08-20T12:23:39.149Z,0.83
2022-08-20T12:26:07.456Z,0.73
2022-08-20T12:28:35.443Z,1.03
2022-08-20T12:31:03.425Z,0.70
2022-08-20T12:33:31.449Z,0.70
2022-08-20T12:36:01.040Z,1.70
2022-08-20T12:38:29.147Z,1.30
2022-08-20T12:40:57.122Z,1.27
2022-08-20T12:43:25.439Z,0.80
2022-08-20T12:45:53.574Z,0.90
2022-08-20T12:48:21.958Z,0.70
2022-08-20T12:50:52.647Z,0.80
2022-08-20T12:53:22.005Z,0.80
2022-08-20T12:55:49.998Z,0.93
2022-08-20T12:58:17.989Z,0.70
2022-08-20T13:00:51.110Z,1.63
2022-08-20T13:03:20.700Z,0.93
2022-08-20T13:05:49.510Z,1.00
2022-08-20T13:08:19.137Z,1.33
2022-08-20T13:10:48.953Z,1.17
2022-08-20T13:13:20.393Z,1.17
2022-08-20T13:15:50.005Z,1.23
2022-08-20T13:18:18.435Z,1.10
2022-08-20T13:20:46.993Z,1.10
2022-08-20T13:23:14.975Z,1.40
2022-08-20T13:25:42.980Z,1.20
2022-08-20T13:28:12.323Z,1.03
2022-08-20T13:30:41.542Z,1.40
2022-08-20T13:33:09.866Z,1.43
2022-08-20T13:35:37.899Z,1.40
2022-08-20T13:38:05.912Z,1.40
2022-08-20T13:40:34.078Z,1.73
2022-08-20T13:43:06.530Z,1.60
2022-08-20T13:45:36.795Z,0.97
2022-08-20T13:48:06.947Z,1.30
2022-08-20T13:50:38.441Z,1.50
2022-08-20T13:53:07.180Z,1.40
2022-08-20T13:55:35.368Z,1.20
2022-08-20T13:58:07.608Z,1.30
2022-08-20T14:00:37.659Z,1.40
2022-08-20T14:03:07.410Z,1.80
2022-08-20T14:05:35.982Z,1.43
2022-08-20T14:08:09.508Z,1.50
2022-08-20T14:10:38.029Z,1.50
2022-08-20T14:13:07.641Z,1.50
2022-08-20T14:15:39.799Z,1.80
2022-08-20T14:18:07.827Z,1.77
2022-08-20T14:20:38.844Z,3.10
2022-08-20T14:23:07.411Z,1.73
2022-08-20T14:25:35.746Z,2.00
2022-08-20T14:28:12.066Z,1.33
2022-08-20T14:30:41.918Z,1.20
2022-08-20T14:33:10.504Z,1.00
2022-08-20T14:35:38.831Z,1.50
2022-08-20T14:38:07.923Z,1.10
2022-08-20T14:40:36.603Z,1.60
2022-08-20T14:43:04.627Z,1.40
2022-08-20T14:45:32.931Z,1.60
2022-08-20T14:48:02.317Z,1.13
2022-08-20T14:50:33.915Z,1.10
2022-08-20T14:53:02.556Z,1.27
2022-08-20T14:55:32.577Z,1.13
2022-08-20T14:58:00.945Z,1.10
2022-08-20T15:00:33.827Z,1.30
2022-08-20T15:03:03.727Z,1.53
2022-08-20T15:05:31.890Z,1.07
2022-08-20T15:08:00.099Z,1.20
2022-08-20T15:10:30.638Z,1.17
2022-08-20T15:12:59.647Z,1.40
2022-08-20T15:15:27.684Z,1.00
2022-08-20T15:17:57.752Z,1.27
2022-08-20T15:20:29.662Z,1.30
2022-08-20T15:22:58.045Z,1.47
2022-08-20T15:25:29.215Z,1.13
2022-08-20T15:28:05.985Z,0.97
2022-08-20T15:30:34.107Z,1.40
2022-08-20T15:33:02.429Z,0.97
2022-08-20T15:35:32.150Z,1.17
2022-08-20T15:38:00.928Z,1.20
2022-08-20T15:40:31.252Z,1.00
2022-08-20T15:43:00.758Z,1.03
2022-08-20T15:45:29.099Z,1.13
2022-08-20T15:48:02.987Z,1.00
2022-08-20T15:51:00.287Z,1.17
2022-08-20T15:53:33.367Z,1.30
2022-08-20T15:56:17.424Z,1.60
2022-08-20T15:58:52.526Z,1.20
2022-08-20T16:01:29.624Z,0.70
2022-08-20T16:04:28.232Z,0.70
2022-08-20T16:07:02.331Z,0.93
2022-08-20T16:09:47.707Z,1.00
2022-08-20T16:12:20.486Z,1.23
2022-08-20T16:14:52.618Z,1.80
2022-08-20T16:17:29.828Z,1.40
2022-08-20T16:20:08.234Z,1.10
2022-08-20T16:22:43.027Z,1.50
2022-08-20T16:25:11.782Z,1.43
2022-08-20T16:27:50.601Z,1.57
2022-08-20T16:30:23.146Z,1.53
2022-08-20T16:33:01.566Z,1.63
2022-08-20T16:35:32.567Z,1.57
2022-08-20T16:38:07.719Z,1.20
2022-08-20T16:40:44.149Z,1.40
2022-08-20T16:43:22.256Z,1.33
2022-08-20T16:45:54.745Z,1.60
2022-08-20T16:48:23.134Z,1.40
2022-08-20T16:50:59.795Z,1.40
2022-08-20T16:53:29.280Z,1.30
2022-08-20T16:55:57.726Z,1.13
2022-08-20T16:58:25.884Z,1.30
2022-08-20T17:01:07.340Z,1.17
2022-08-20T17:03:40.368Z,0.90
2022-08-20T17:06:19.240Z,1.10
2022-08-20T17:08:51.541Z,1.10
2022-08-20T17:11:26.093Z,1.40
2022-08-20T17:14:09.013Z,1.23
2022-08-20T17:16:40.664Z,1.10
2022-08-20T17:19:15.812Z,1.70
2022-08-20T17:21:44.928Z,1.40
2022-08-20T17:24:24.938Z,1.30
2022-08-20T17:27:00.588Z,1.17
2022-08-20T17:29:32.403Z,1.03
2022-08-20T17:32:02.318Z,1.53
2022-08-20T17:34:33.138Z,1.40
2022-08-20T17:37:06.439Z,1.30
2022-08-20T17:39:35.827Z,1.47
2022-08-20T17:42:08.860Z,2.10
2022-08-20T17:44:42.438Z,1.37
2022-08-20T17:47:15.986Z,1.40
2022-08-20T17:50:01.859Z,1.57
2022-08-20T17:52:40.067Z,1.90
2022-08-20T17:55:11.659Z,2.30
2022-08-20T17:57:44.099Z,2.00
2022-08-20T18:00:16.357Z,2.00
2022-08-20T18:02:44.850Z,2.83
2022-08-20T18:05:19.058Z,1.73
2022-08-20T18:08:08.576Z,2.37
2022-08-20T18:10:43.478Z,2.10
2022-08-20T18:13:19.331Z,1.70
2022-08-20T18:15:51.678Z,3.00
2022-08-20T18:18:29.709Z,1.87
2022-08-20T18:21:19.976Z,1.47
2022-08-20T18:23:54.144Z,1.80
2022-08-20T18:26:28.271Z,1.73
2022-08-20T18:29:00.629Z,2.87
2022-08-20T18:31:32.494Z,1.60
2022-08-20T18:34:11.578Z,2.30
2022-08-20T18:36:41.202Z,2.03
2022-08-20T18:39:12.838Z,1.80
2022-08-20T18:41:55.652Z,1.87
2022-08-20T18:44:29.627Z,1.97
2022-08-20T18:47:02.087Z,2.30
2022-08-20T18:49:32.236Z,2.80
2022-08-20T18:52:11.071Z,2.73
2022-08-20T18:54:41.958Z,1.40
2022-08-20T18:57:21.760Z,1.70
2022-08-20T19:00:02.252Z,2.57
2022-08-20T19:02:33.297Z,3.13
2022-08-20T19:05:05.311Z,2.60
2022-08-20T19:07:48.983Z,3.20
2022-08-20T19:10:36.071Z,3.70
2022-08-20T19:13:28.604Z,3.20
2022-08-20T19:16:00.780Z,2.50
2022-08-20T19:18:34.769Z,2.10
2022-08-20T19:21:04.871Z,2.03
2022-08-20T19:23:49.495Z,2.23
2022-08-20T19:26:25.342Z,2.20
2022-08-20T19:28:59.297Z,2.30
2022-08-20T19:31:30.046Z,1.60
2022-08-20T19:34:20.136Z,1.60
2022-08-20T19:36:55.870Z,1.80
2022-08-20T19:39:25.814Z,2.17
2022-08-20T19:41:58.874Z,1.53
2022-08-20T19:44:34.148Z,1.20
2022-08-20T19:47:03.039Z,2.23
2022-08-20T19:49:42.888Z,1.77
2022-08-20T19:52:33.257Z,1.80
2022-08-20T19:55:04.021Z,2.10
2022-08-20T19:57:32.567Z,1.80
2022-08-20T20:00:06.654Z,1.83
2022-08-20T20:02:35.169Z,2.13
2022-08-20T20:05:06.576Z,2.10
2022-08-20T20:07:39.458Z,2.03
2022-08-20T20:10:11.211Z,2.40
2022-08-20T20:12:40.504Z,3.00
2022-08-20T20:15:10.513Z,1.90
2022-08-20T20:17:39.473Z,2.13
2022-08-20T20:20:22.112Z,1.80
2022-08-20T20:22:52.852Z,1.93
2022-08-20T20:25:23.982Z,2.00
2022-08-20T20:27:55.705Z,1.73
2022-08-20T20:30:28.759Z,1.30
2022-08-20T20:32:59.445Z,1.43
2022-08-20T20:35:30.970Z,1.50
2022-08-20T20:38:01.310Z,2.00
2022-08-20T20:40:33.963Z,1.97
2022-08-20T20:43:07.343Z,2.40
2022-08-20T20:45:40.637Z,1.87
2022-08-20T20:48:19.203Z,2.00
2022-08-20T20:50:48.718Z,1.53
2022-08-20T20:53:35.121Z,2.00
2022-08-20T20:56:38.209Z,2.13
2022-08-20T20:59:08.988Z,1.87
2022-08-20T21:01:49.008Z,2.07
2022-08-20T21:04:20.079Z,1.90
2022-08-20T21:06:48.662Z,2.40
2022-08-20T21:09:16.798Z,1.97
2022-08-20T21:11:44.830Z,1.67
2022-08-20T21:14:12.963Z,2.10
2022-08-20T21:16:42.996Z,1.30
2022-08-20T21:19:12.454Z,2.00
2022-08-20T21:21:41.619Z,2.63
2022-08-20T21:24:09.880Z,2.43
2022-08-20T21:26:38.655Z,2.13
2022-08-20T21:29:09.296Z,2.30
2022-08-20T21:31:43.416Z,1.90
2022-08-20T21:34:15.275Z,1.80
2022-08-20T21:36:43.371Z,2.03
2022-08-20T21:39:11.683Z,2.40
2022-08-20T21:41:42.792Z,2.10
2022-08-20T21:44:21.328Z,2.20
2022-08-20T21:46:49.918Z,1.87
2022-08-20T21:49:20.486Z,2.20
2022-08-20T21:51:49.309Z,2.30
2022-08-20T21:54:17.697Z,1.90
2022-08-20T21:56:47.635Z,2.90
2022-08-20T21:59:18.160Z,2.40
2022-08-20T22:01:46.189Z,2.00
2022-08-20T22:04:14.636Z,2.00
2022-08-20T22:06:44.061Z,2.17
2022-08-20T22:09:12.600Z,2.53
2022-08-20T22:11:40.685Z,2.00
2022-08-20T22:14:10.463Z,2.70
2022-08-20T22:16:38.693Z,2.63
2022-08-20T22:19:16.201Z,2.83
2022-08-20T22:21:45.919Z,2.70
2022-08-20T22:24:14.982Z,2.63
2022-08-20T22:26:44.469Z,2.40
2022-08-20T22:29:13.372Z,2.10
2022-08-20T22:31:43.908Z,2.33
2022-08-20T22:34:13.988Z,2.57
2022-08-20T22:36:42.468Z,2.30
2022-08-20T22:39:12.092Z,2.00
2022-08-20T22:41:40.739Z,2.30
2022-08-20T22:44:08.766Z,2.40
2022-08-20T22:46:45.001Z,1.87
2022-08-20T22:49:18.986Z,2.90
2022-08-20T22:51:47.316Z,2.60
2022-08-20T22:54:21.875Z,1.93
2022-08-20T22:56:51.012Z,2.37
2022-08-20T22:59:19.220Z,2.43
2022-08-20T23:01:48.044Z,2.40
2022-08-20T23:04:24.563Z,2.70
2022-08-20T23:06:52.905Z,2.90
2022-08-20T23:09:22.340Z,2.13
2022-08-20T23:11:50.780Z,2.37
2022-08-20T23:14:18.892Z,2.50
2022-08-20T23:16:53.451Z,2.03
2022-08-20T23:19:22.905Z,2.50
2022-08-20T23:21:51.269Z,2.10
2022-08-20T23:24:19.545Z,2.17
2022-08-20T23:26:52.970Z,2.03
2022-08-20T23:29:25.370Z,2.67
2022-08-20T23:31:54.970Z,2.67
2022-08-20T23:34:23.364Z,1.87
2022-08-20T23:36:52.516Z,2.63
2022-08-20T23:39:21.179Z,2.40
2022-08-20T23:41:50.813Z,2.47
2022-08-20T23:44:26.127Z,2.40
2022-08-20T23:46:55.973Z,2.30
2022-08-20T23:49:24.076Z,2.10
2022-08-20T23:51:52.195Z,2.80
2022-08-20T23:54:20.212Z,2.77
2022-08-20T23:56:48.348Z,2.50
2022-08-20T23:59:17.982Z,2.80
